createdAt,value
2022-08-12T00:00:23.110Z,19.85
2022-08-12T00:03:09.020Z,19.72
2022-08-12T00:06:04.892Z,19.64
2022-08-12T00:08:56.735Z,19.62
2022-08-12T00:11:44.142Z,19.65
2022-08-12T00:14:30.434Z,19.57
2022-08-12T00:17:18.788Z,19.35
2022-08-12T00:20:05.014Z,19.11
2022-08-12T00:22:58.867Z,19.08
2022-08-12T00:26:22.542Z,19.01
2022-08-12T00:29:02.275Z,18.93
2022-08-12T00:31:48.511Z,18.88
2022-08-12T00:34:36.134Z,18.84
2022-08-12T00:37:23.325Z,18.78
2022-08-12T00:40:11.789Z,18.89
2022-08-12T00:42:41.816Z,18.99
2022-08-12T00:45:12.882Z,18.94
2022-08-12T00:47:41.870Z,18.72
2022-08-12T00:50:18.404Z,18.54
2022-08-12T00:52:47.488Z,18.37
2022-08-12T00:55:17.096Z,18.22
2022-08-12T00:57:47.973Z,18.12
2022-08-12T01:00:21.528Z,17.98
2022-08-12T01:02:52.646Z,17.83
2022-08-12T01:05:41.160Z,17.89
2022-08-12T01:08:28.034Z,17.87
2022-08-12T01:11:15.154Z,17.83
2022-08-12T01:13:48.591Z,17.77
2022-08-12T01:16:22.497Z,17.71
2022-08-12T01:18:53.433Z,17.66
2022-08-12T01:21:44.935Z,17.63
2022-08-12T01:24:31.308Z,17.62
2022-08-12T01:27:07.487Z,17.52
2022-08-12T01:29:42.711Z,17.43
2022-08-12T01:32:14.356Z,17.42
2022-08-12T01:34:51.550Z,17.46
2022-08-12T01:37:23.416Z,17.65
2022-08-12T01:40:33.262Z,17.75
2022-08-12T01:42:47.255Z,17.77
2022-08-12T01:45:22.899Z,17.79
2022-08-12T01:48:06.877Z,17.83
2022-08-12T01:50:43.318Z,17.83
2022-08-12T01:53:16.082Z,17.83
2022-08-12T01:55:47.557Z,17.88
2022-08-12T01:58:26.890Z,17.84
2022-08-12T02:00:59.898Z,17.63
2022-08-12T02:04:03.098Z,17.40
2022-08-12T02:06:57.454Z,17.32
2022-08-12T02:09:54.910Z,17.04
2022-08-12T02:12:38.990Z,16.85
2022-08-12T02:15:22.595Z,16.76
2022-08-12T02:18:07.295Z,16.66
2022-08-12T02:20:51.559Z,16.53
2022-08-12T02:23:27.127Z,16.39
2022-08-12T02:26:02.417Z,16.34
2022-08-12T02:28:31.746Z,16.31
2022-08-12T02:31:05.513Z,16.29
2022-08-12T02:33:34.433Z,16.27
2022-08-12T02:36:04.071Z,16.28
2022-08-12T02:38:32.885Z,16.32
2022-08-12T02:41:04.718Z,16.34
2022-08-12T02:43:37.942Z,16.37
2022-08-12T02:46:14.047Z,16.35
2022-08-12T02:48:48.084Z,16.34
2022-08-12T02:51:20.432Z,16.37
2022-08-12T02:54:02.879Z,16.42
2022-08-12T02:56:37.722Z,16.59
2022-08-12T02:59:12.369Z,16.73
2022-08-12T03:01:48.534Z,16.83
2022-08-12T03:04:27.288Z,16.86
2022-08-12T03:07:05.704Z,16.85
2022-08-12T03:10:03.435Z,16.82
2022-08-12T03:12:41.201Z,16.84
2022-08-12T03:15:22.433Z,16.90
2022-08-12T03:18:24.911Z,16.85
2022-08-12T03:20:46.396Z,16.82
2022-08-12T03:23:17.492Z,16.73
2022-08-12T03:25:59.018Z,16.57
2022-08-12T03:28:47.011Z,16.52
2022-08-12T03:31:15.514Z,16.52
2022-08-12T03:34:00.440Z,16.52
2022-08-12T03:36:33.549Z,16.47
2022-08-12T03:39:35.850Z,16.58
2022-08-12T03:42:17.215Z,16.73
2022-08-12T03:45:16.345Z,16.88
2022-08-12T03:48:11.255Z,16.89
2022-08-12T03:51:06.151Z,16.82
2022-08-12T03:53:52.660Z,16.75
2022-08-12T03:56:38.998Z,16.77
2022-08-12T03:59:26.410Z,16.87
2022-08-12T04:01:58.443Z,16.81
2022-08-12T04:04:28.654Z,16.77
2022-08-12T04:07:01.495Z,16.76
2022-08-12T04:09:31.020Z,16.75
2022-08-12T04:12:16.712Z,16.79
2022-08-12T04:14:45.513Z,16.79
2022-08-12T04:17:14.486Z,16.81
2022-08-12T04:19:43.711Z,16.82
2022-08-12T04:22:13.508Z,16.80
2022-08-12T04:24:42.937Z,16.77
2022-08-12T04:27:16.084Z,16.72
2022-08-12T04:30:29.075Z,16.64
2022-08-12T04:32:33.887Z,16.57
2022-08-12T04:35:03.889Z,16.44
2022-08-12T04:37:58.304Z,16.32
2022-08-12T04:40:27.891Z,16.25
2022-08-12T04:42:57.397Z,16.06
2022-08-12T04:45:26.057Z,15.89
2022-08-12T04:47:54.571Z,15.73
2022-08-12T04:50:33.825Z,15.59
2022-08-12T04:53:10.290Z,15.46
2022-08-12T04:55:39.630Z,15.36
2022-08-12T04:58:09.042Z,15.29
2022-08-12T05:00:38.972Z,15.44
2022-08-12T05:03:08.461Z,15.54
2022-08-12T05:05:38.646Z,15.51
2022-08-12T05:08:12.875Z,15.59
2022-08-12T05:10:41.501Z,15.55
2022-08-12T05:13:14.556Z,15.56
2022-08-12T05:16:04.589Z,15.68
2022-08-12T05:18:32.142Z,15.74
2022-08-12T05:21:00.603Z,15.74
2022-08-12T05:23:32.336Z,15.80
2022-08-12T05:26:01.540Z,15.99
2022-08-12T05:28:30.763Z,16.24
2022-08-12T05:31:01.746Z,16.41
2022-08-12T05:33:37.739Z,16.57
2022-08-12T05:36:09.917Z,16.52
2022-08-12T05:38:58.059Z,16.37
2022-08-12T05:41:28.606Z,16.27
2022-08-12T05:43:59.420Z,16.26
2022-08-12T05:46:29.590Z,16.36
2022-08-12T05:49:00.850Z,16.59
2022-08-12T05:51:40.391Z,16.81
2022-08-12T05:54:12.449Z,17.07
2022-08-12T05:56:42.009Z,17.26
2022-08-12T05:59:14.027Z,17.42
2022-08-12T06:02:12.184Z,17.57
2022-08-12T06:04:33.320Z,17.69
2022-08-12T06:07:02.758Z,17.81
2022-08-12T06:09:52.641Z,17.88
2022-08-12T06:12:23.313Z,17.96
2022-08-12T06:14:51.713Z,18.04
2022-08-12T06:17:20.321Z,18.03
2022-08-12T06:20:26.299Z,17.92
2022-08-12T06:22:37.391Z,17.86
2022-08-12T06:25:09.137Z,17.99
2022-08-12T06:28:06.273Z,18.13
2022-08-12T06:30:39.511Z,18.29
2022-08-12T06:33:22.465Z,18.42
2022-08-12T06:35:57.683Z,18.50
2022-08-12T06:38:28.481Z,18.50
2022-08-12T06:41:27.018Z,18.46
2022-08-12T06:44:06.865Z,18.38
2022-08-12T06:46:38.918Z,18.37
2022-08-12T06:49:08.680Z,18.39
2022-08-12T06:51:37.127Z,18.44
2022-08-12T06:54:05.775Z,18.41
2022-08-12T06:59:25.161Z,18.40
2022-08-12T07:01:55.080Z,18.33
2022-08-12T07:04:36.251Z,18.20
2022-08-12T07:07:07.097Z,18.22
2022-08-12T07:10:00.036Z,18.42
2022-08-12T07:12:27.972Z,18.58
2022-08-12T07:14:57.827Z,18.69
2022-08-12T07:17:26.458Z,18.88
2022-08-12T07:19:57.981Z,19.05
2022-08-12T07:22:29.288Z,19.13
2022-08-12T07:25:11.605Z,19.07
2022-08-12T07:27:42.700Z,19.07
2022-08-12T07:30:12.519Z,19.10
2022-08-12T07:32:41.391Z,19.25
2022-08-12T07:35:10.895Z,19.38
2022-08-12T07:37:42.410Z,19.48
2022-08-12T07:40:13.161Z,19.61
2022-08-12T07:42:44.330Z,19.75
2022-08-12T07:45:13.877Z,19.88
2022-08-12T07:47:43.519Z,19.98
2022-08-12T07:50:13.473Z,20.04
2022-08-12T07:52:44.029Z,20.09
2022-08-12T07:55:13.478Z,20.12
2022-08-12T07:57:59.284Z,20.17
2022-08-12T08:00:29.459Z,20.19
2022-08-12T08:02:58.701Z,20.25
2022-08-12T08:05:30.978Z,20.39
2022-08-12T08:08:02.526Z,20.53
2022-08-12T08:10:31.877Z,20.63
2022-08-12T08:13:05.203Z,20.73
2022-08-12T08:16:01.086Z,20.80
2022-08-12T08:18:26.730Z,20.82
2022-08-12T08:20:57.417Z,20.88
2022-08-12T08:23:56.032Z,20.98
2022-08-12T08:26:27.125Z,21.10
2022-08-12T08:28:57.207Z,21.23
2022-08-12T08:31:25.770Z,21.36
2022-08-12T08:34:05.105Z,21.49
2022-08-12T08:36:44.006Z,21.57
2022-08-12T08:39:16.966Z,21.64
2022-08-12T08:42:17.445Z,21.71
2022-08-12T08:44:54.048Z,21.85
2022-08-12T08:47:27.287Z,21.95
2022-08-12T08:50:01.248Z,22.05
2022-08-12T08:52:40.099Z,22.16
2022-08-12T08:55:11.145Z,22.20
2022-08-12T08:57:43.611Z,22.24
2022-08-12T09:00:18.620Z,22.29
2022-08-12T09:02:49.610Z,22.39
2022-08-12T09:05:43.142Z,22.52
2022-08-12T09:08:26.729Z,22.61
2022-08-12T09:11:00.152Z,22.69
2022-08-12T09:14:10.531Z,22.78
2022-08-12T09:16:24.377Z,22.88
2022-08-12T09:18:54.016Z,22.94
2022-08-12T09:21:23.394Z,23.04
2022-08-12T09:24:06.135Z,23.19
2022-08-12T09:26:46.101Z,23.33
2022-08-12T09:29:15.784Z,23.47
2022-08-12T09:32:07.378Z,23.56
2022-08-12T09:34:36.310Z,23.72
2022-08-12T09:37:19.899Z,23.86
2022-08-12T09:40:05.289Z,23.99
2022-08-12T09:43:16.039Z,24.08
2022-08-12T09:46:11.676Z,24.14
2022-08-12T09:48:39.254Z,24.26
2022-08-12T09:51:21.732Z,24.33
2022-08-12T09:54:05.904Z,24.44
2022-08-12T09:57:03.149Z,24.53
2022-08-12T10:00:17.196Z,24.62
2022-08-12T10:02:45.732Z,24.72
2022-08-12T10:05:13.284Z,24.84
2022-08-12T10:07:42.724Z,24.97
2022-08-12T10:10:24.189Z,25.01
2022-08-12T10:13:33.804Z,24.96
2022-08-12T10:16:05.145Z,25.05
2022-08-12T10:18:51.205Z,25.21
2022-08-12T10:21:24.006Z,25.30
2022-08-12T10:24:06.309Z,25.39
2022-08-12T10:26:53.474Z,25.47
2022-08-12T10:30:37.290Z,25.60
2022-08-12T10:32:43.801Z,25.74
2022-08-12T10:35:16.483Z,25.84
2022-08-12T10:38:37.835Z,25.87
2022-08-12T10:40:55.863Z,25.91
2022-08-12T10:43:54.471Z,25.99
2022-08-12T10:46:31.414Z,26.11
2022-08-12T10:49:06.687Z,26.21
2022-08-12T10:52:31.144Z,26.26
2022-08-12T10:54:46.314Z,26.28
2022-08-12T10:58:15.745Z,26.33
2022-08-12T11:00:33.716Z,26.45
2022-08-12T11:04:19.136Z,26.51
2022-08-12T11:07:08.463Z,26.61
2022-08-12T11:08:42.898Z,26.70
2022-08-12T11:11:17.931Z,26.79
2022-08-12T11:14:13.111Z,26.91
2022-08-12T11:17:34.758Z,27.00
2022-08-12T11:19:46.490Z,27.05
2022-08-12T11:22:14.996Z,27.14
2022-08-12T11:24:51.586Z,27.22
2022-08-12T11:27:23.621Z,27.28
2022-08-12T11:30:05.566Z,27.31
2022-08-12T11:32:39.072Z,27.35
2022-08-12T11:35:11.523Z,27.44
2022-08-12T11:37:58.140Z,27.45
2022-08-12T11:40:28.689Z,27.49
2022-08-12T11:43:17.181Z,27.63
2022-08-12T11:45:53.398Z,27.81
2022-08-12T11:48:26.978Z,27.89
2022-08-12T11:50:56.442Z,27.97
2022-08-12T11:53:59.144Z,28.04
2022-08-12T11:56:13.225Z,28.13
2022-08-12T12:02:02.459Z,28.31
2022-08-12T12:04:29.040Z,28.42
2022-08-12T12:07:07.377Z,28.34
2022-08-12T12:09:51.955Z,27.98
2022-08-12T12:12:25.224Z,27.71
2022-08-12T12:14:55.877Z,27.47
2022-08-12T12:17:25.189Z,27.27
2022-08-12T12:19:55.070Z,27.08
2022-08-12T12:22:27.230Z,26.91
2022-08-12T12:25:13.241Z,26.80
2022-08-12T12:28:06.131Z,26.71
2022-08-12T12:30:37.281Z,26.64
2022-08-12T12:33:06.441Z,26.61
2022-08-12T12:36:07.057Z,26.67
2022-08-12T12:38:25.113Z,26.93
2022-08-12T12:40:54.137Z,27.19
2022-08-12T12:43:29.081Z,27.41
2022-08-12T12:46:13.044Z,27.65
2022-08-12T12:48:44.614Z,27.78
2022-08-12T12:51:22.275Z,27.73
2022-08-12T12:54:09.891Z,27.57
2022-08-12T12:56:42.941Z,27.36
2022-08-12T12:59:56.572Z,27.09
2022-08-12T13:02:06.190Z,26.77
2022-08-12T13:04:38.121Z,26.53
2022-08-12T13:07:07.943Z,26.41
2022-08-12T13:09:36.947Z,26.57
2022-08-12T13:12:10.594Z,26.85
2022-08-12T13:14:39.807Z,27.14
2022-08-12T13:17:14.481Z,27.25
2022-08-12T13:19:46.588Z,27.25
2022-08-12T13:22:18.531Z,27.18
2022-08-12T13:24:51.928Z,27.10
2022-08-12T13:27:23.057Z,27.14
2022-08-12T13:30:02.021Z,27.29
2022-08-12T13:32:35.288Z,27.49
2022-08-12T13:35:19.766Z,27.66
2022-08-12T13:37:55.358Z,27.82
2022-08-12T13:40:26.035Z,28.00
2022-08-12T13:42:58.070Z,28.17
2022-08-12T13:45:29.074Z,28.31
2022-08-12T13:48:02.148Z,28.41
2022-08-12T13:50:33.207Z,28.45
2022-08-12T13:53:06.355Z,28.50
2022-08-12T13:56:01.419Z,28.55
2022-08-12T13:58:34.750Z,28.59
2022-08-12T14:01:06.096Z,28.62
2022-08-12T14:03:51.533Z,28.66
2022-08-12T14:06:22.001Z,28.72
2022-08-12T14:08:55.741Z,28.77
2022-08-12T14:11:25.308Z,28.86
2022-08-12T14:14:03.469Z,29.00
2022-08-12T14:16:49.057Z,29.09
2022-08-12T14:19:24.847Z,29.18
2022-08-12T14:22:00.709Z,29.29
2022-08-12T14:24:40.639Z,29.33
2022-08-12T14:27:11.256Z,29.25
2022-08-12T14:30:04.824Z,29.06
2022-08-12T14:32:34.582Z,28.79
2022-08-12T14:35:09.632Z,28.57
2022-08-12T14:37:56.642Z,28.36
2022-08-12T14:40:28.312Z,28.17
2022-08-12T14:42:57.950Z,28.04
2022-08-12T14:45:44.685Z,27.92
2022-08-12T14:48:18.467Z,27.74
2022-08-12T14:51:09.520Z,27.58
2022-08-12T14:59:56.517Z,27.09
2022-08-12T15:02:21.543Z,26.78
2022-08-12T15:04:58.669Z,26.60
2022-08-12T15:07:33.868Z,26.57
2022-08-12T15:10:24.958Z,26.51
2022-08-12T15:13:07.420Z,26.59
2022-08-12T15:15:44.167Z,26.78
2022-08-12T15:18:20.890Z,26.92
2022-08-12T15:20:51.258Z,27.05
2022-08-12T15:23:22.880Z,27.26
2022-08-12T15:26:02.370Z,27.34
2022-08-12T15:28:34.782Z,27.35
2022-08-12T15:31:09.596Z,27.28
2022-08-12T15:33:50.401Z,27.18
2022-08-12T15:36:50.260Z,26.97
2022-08-12T15:39:17.067Z,26.84
2022-08-12T15:41:49.732Z,26.80
2022-08-12T15:44:38.679Z,26.69
2022-08-12T15:47:09.005Z,26.72
2022-08-12T15:49:54.760Z,26.78
2022-08-12T15:52:28.923Z,26.88
2022-08-12T15:55:06.347Z,26.99
2022-08-12T15:57:41.828Z,27.08
2022-08-12T16:00:22.461Z,27.09
2022-08-12T16:03:05.361Z,27.08
2022-08-12T16:06:16.869Z,27.10
2022-08-12T16:08:27.676Z,27.11
2022-08-12T16:10:58.002Z,27.11
2022-08-12T16:13:34.773Z,27.12
2022-08-12T16:16:04.334Z,27.13
2022-08-12T16:18:52.764Z,27.08
2022-08-12T16:21:52.095Z,27.03
2022-08-12T16:24:14.402Z,27.00
2022-08-12T16:26:45.219Z,27.01
2022-08-12T16:29:52.066Z,26.97
2022-08-12T16:32:24.236Z,26.92
2022-08-12T16:34:55.059Z,26.91
2022-08-12T16:38:04.754Z,26.86
2022-08-12T16:40:14.750Z,26.82
2022-08-12T16:42:53.736Z,26.76
2022-08-12T16:45:32.197Z,26.74
2022-08-12T16:48:34.879Z,26.74
2022-08-12T16:51:09.544Z,26.75
2022-08-12T16:53:43.682Z,26.72
2022-08-12T16:56:15.273Z,26.68
2022-08-12T16:58:47.135Z,26.58
2022-08-12T17:01:16.635Z,26.47
2022-08-12T17:04:08.611Z,26.38
2022-08-12T17:06:41.710Z,26.26
2022-08-12T17:09:18.053Z,26.19
2022-08-12T17:11:49.463Z,26.13
2022-08-12T17:14:23.500Z,26.10
2022-08-12T17:16:55.609Z,26.03
2022-08-12T17:20:12.140Z,25.97
2022-08-12T17:22:16.423Z,25.87
2022-08-12T17:24:54.720Z,25.81
2022-08-12T17:27:26.690Z,25.72
2022-08-12T17:30:04.437Z,25.64
2022-08-12T17:32:37.085Z,25.53
2022-08-12T17:35:29.815Z,25.41
2022-08-12T17:38:11.984Z,25.27
2022-08-12T17:40:43.041Z,25.14
2022-08-12T17:43:57.702Z,25.01
2022-08-12T17:46:03.561Z,24.90
2022-08-12T17:48:34.467Z,24.80
2022-08-12T17:51:15.508Z,24.70
2022-08-12T17:54:11.063Z,24.64
2022-08-12T17:56:37.283Z,24.55
2022-08-12T17:59:12.095Z,24.50
2022-08-12T18:01:46.146Z,24.46
2022-08-12T18:04:22.390Z,24.43
2022-08-12T18:06:52.637Z,24.37
2022-08-12T18:09:24.556Z,24.34
2022-08-12T18:12:24.858Z,24.31
2022-08-12T18:14:58.497Z,24.25
2022-08-12T18:17:29.505Z,24.20
2022-08-12T18:20:05.936Z,24.14
2022-08-12T18:22:38.642Z,24.08
2022-08-12T18:26:12.470Z,24.00
2022-08-12T18:28:15.644Z,23.93
2022-08-12T18:30:52.339Z,23.86
2022-08-12T18:33:25.331Z,23.83
2022-08-12T18:35:57.153Z,23.81
2022-08-12T18:38:26.912Z,23.82
2022-08-12T18:41:21.536Z,23.81
2022-08-12T18:44:00.011Z,23.74
2022-08-12T18:46:47.213Z,23.72
2022-08-12T18:49:24.834Z,23.69
2022-08-12T18:52:03.907Z,23.66
2022-08-12T18:54:36.232Z,23.64
2022-08-12T18:57:16.701Z,23.58
2022-08-12T19:00:02.057Z,23.54
2022-08-12T19:02:39.899Z,23.51
2022-08-12T19:05:14.327Z,23.48
2022-08-12T19:07:49.817Z,23.44
2022-08-12T19:10:29.066Z,23.36
2022-08-12T19:13:24.224Z,23.33
2022-08-12T19:15:58.166Z,23.30
2022-08-12T19:18:31.349Z,23.27
2022-08-12T19:21:11.742Z,23.23
2022-08-12T19:24:04.757Z,23.21
2022-08-12T19:26:34.512Z,23.15
2022-08-12T19:29:05.001Z,23.12
2022-08-12T19:31:57.531Z,23.06
2022-08-12T19:37:26.639Z,22.92
2022-08-12T19:40:08.780Z,22.87
2022-08-12T19:43:00.703Z,22.81
2022-08-12T19:45:42.406Z,22.69
2022-08-12T19:48:18.885Z,22.33
2022-08-12T19:50:50.174Z,21.99
2022-08-12T19:53:23.492Z,21.71
2022-08-12T19:55:53.708Z,21.57
2022-08-12T19:58:24.487Z,21.58
2022-08-12T20:00:54.778Z,21.67
2022-08-12T20:03:38.147Z,21.77
2022-08-12T20:06:11.121Z,21.89
2022-08-12T20:08:48.793Z,21.89
2022-08-12T20:12:13.335Z,21.91
2022-08-12T20:14:07.857Z,21.97
2022-08-12T20:16:57.852Z,21.99
2022-08-12T20:19:52.895Z,21.95
2022-08-12T20:22:23.355Z,21.85
2022-08-12T20:24:56.658Z,21.56
2022-08-12T20:27:29.256Z,21.36
2022-08-12T20:30:15.407Z,21.15
2022-08-12T20:32:54.015Z,21.03
2022-08-12T20:35:24.731Z,21.15
2022-08-12T20:38:06.430Z,21.04
2022-08-12T20:40:49.979Z,21.03
2022-08-12T20:43:23.918Z,20.91
2022-08-12T20:45:57.210Z,20.89
2022-08-12T20:48:29.346Z,20.84
2022-08-12T20:51:04.385Z,20.87
2022-08-12T20:53:54.213Z,20.96
2022-08-12T20:56:31.122Z,20.98
2022-08-12T20:59:02.553Z,20.77
2022-08-12T21:01:45.973Z,20.45
2022-08-12T21:04:36.212Z,20.41
2022-08-12T21:07:08.936Z,20.22
2022-08-12T21:09:42.231Z,19.89
2022-08-12T21:12:31.313Z,19.61
2022-08-12T21:15:23.327Z,19.48
2022-08-12T21:18:10.735Z,19.57
2022-08-12T21:20:52.548Z,19.79
2022-08-12T21:23:22.685Z,19.94
2022-08-12T21:25:52.568Z,19.95
2022-08-12T21:28:27.424Z,19.82
2022-08-12T21:32:34.658Z,19.76
2022-08-12T21:34:07.620Z,19.75
2022-08-12T21:36:43.196Z,19.75
2022-08-12T21:39:21.232Z,19.47
2022-08-12T21:41:52.736Z,19.25
2022-08-12T21:45:44.027Z,19.20
2022-08-12T21:47:21.023Z,19.18
2022-08-12T21:50:02.295Z,19.27
2022-08-12T21:52:35.504Z,19.19
2022-08-12T21:55:20.182Z,19.26
2022-08-12T21:57:54.540Z,19.26
2022-08-12T22:00:34.806Z,19.15
2022-08-12T22:04:02.204Z,19.03
2022-08-12T22:06:31.807Z,18.95
2022-08-12T22:09:15.975Z,19.01
2022-08-12T22:11:56.502Z,19.06
2022-08-12T22:14:29.695Z,19.14
2022-08-12T22:17:01.444Z,19.23
2022-08-12T22:19:35.284Z,19.24
2022-08-12T22:22:05.243Z,19.11
2022-08-12T22:24:34.358Z,18.88
2022-08-12T22:27:08.049Z,18.83
2022-08-12T22:30:15.990Z,18.60
2022-08-12T22:32:50.120Z,18.44
2022-08-12T22:35:55.679Z,18.37
2022-08-12T22:38:26.576Z,18.33
2022-08-12T22:40:58.504Z,18.25
2022-08-12T22:44:00.845Z,18.14
2022-08-12T22:46:53.126Z,18.06
2022-08-12T22:49:37.143Z,18.00
2022-08-12T22:52:18.591Z,18.03
2022-08-12T22:55:02.688Z,18.22
2022-08-12T22:57:53.733Z,18.43
2022-08-12T23:00:24.183Z,18.54
2022-08-12T23:03:02.684Z,18.54
2022-08-12T23:05:56.719Z,18.32
2022-08-12T23:08:29.874Z,18.14
2022-08-12T23:11:00.270Z,18.01
2022-08-12T23:13:55.539Z,18.17
2022-08-12T23:16:30.894Z,18.26
2022-08-12T23:19:09.894Z,18.26
2022-08-12T23:22:06.305Z,18.27
2022-08-12T23:24:54.135Z,18.33
2022-08-12T23:27:50.954Z,18.23
2022-08-12T23:30:31.028Z,17.93
2022-08-12T23:33:01.391Z,17.68
2022-08-12T23:35:53.448Z,17.48
2022-08-12T23:38:31.782Z,17.39
2022-08-12T23:41:02.024Z,17.32
2022-08-12T23:43:39.206Z,17.34
2022-08-12T23:46:10.007Z,17.51
2022-08-12T23:48:39.876Z,17.71
2022-08-12T23:51:23.080Z,17.80
2022-08-12T23:54:00.311Z,17.85
2022-08-12T23:56:33.541Z,17.90
2022-08-12T23:59:03.092Z,17.85
